Time;durP1;ratioP1;P1;durP2;ratioP2;P2;SDS_P1;SDS_P2;PMS_P1;PMS_P2;Temp;Humidity;BMP_temperature;BMP_pressure;BME280_temperature;BME280_humidity;BME280_pressure;Samples;Min_cycle;Max_cycle;Signal;HPM_P1;HPM_P2
2022/11/18 00:00:54;;;;;;;5.78;4.80;;;;;;;19.11;55.20;95197.75;10417355;28;20050;-59
2022/11/18 00:06:18;;;;;;;5.35;4.63;;;;;;;19.12;55.15;95180.44;10416103;28;20053;-59
2022/11/18 00:17:15;;;;;;;5.13;4.63;;;;;;;19.10;55.37;95178.09;10416860;28;20087;-58
2022/11/18 00:22:34;;;;;;;5.43;4.72;;;;;;;19.09;55.61;95176.56;10392931;28;20692;-59
2022/11/18 00:27:53;;;;;;;5.00;4.47;;;;;;;19.09;55.62;95183.84;10388250;28;20069;-57
2022/11/18 00:33:13;;;;;;;6.38;5.13;;;;;;;19.09;55.58;95187.34;10375133;28;20050;-58
2022/11/18 00:38:32;;;;;;;5.05;4.55;;;;;;;19.08;55.63;95185.78;10387713;28;20038;-59
2022/11/18 00:43:52;;;;;;;5.47;4.47;;;;;;;19.06;55.82;95188.06;10398426;28;20049;-57
2022/11/18 00:49:11;;;;;;;5.82;4.72;;;;;;;19.06;55.76;95177.25;10415422;28;20075;-59
2022/11/18 00:54:31;;;;;;;5.45;4.20;;;;;;;19.05;55.79;95189.22;10415028;28;20057;-59
2022/11/18 00:59:50;;;;;;;4.60;4.10;;;;;;;19.06;55.81;95188.06;10428417;28;20401;-59
2022/11/18 01:05:10;;;;;;;4.70;4.18;;;;;;;19.05;55.76;95197.31;10414646;28;20412;-59
2022/11/18 01:10:29;;;;;;;6.30;4.38;;;;;;;19.04;56.05;95195.72;10414454;28;20103;-59
2022/11/18 01:15:56;;;;;;;5.68;4.70;;;;;;;19.04;56.17;95195.72;10423912;28;20046;-58
2022/11/18 01:21:16;;;;;;;4.65;4.20;;;;;;;19.03;56.09;95188.75;10367785;28;20079;-57
2022/11/18 01:26:36;;;;;;;5.22;4.30;;;;;;;19.03;56.17;95182.59;10372849;28;20061;-57
2022/11/18 01:31:55;;;;;;;4.43;4.03;;;;;;;19.01;56.15;95174.84;10373201;28;20069;-58
2022/11/18 01:37:14;;;;;;;4.72;4.03;;;;;;;19.00;56.23;95173.31;10373059;28;20066;-58
2022/11/18 01:42:34;;;;;;;4.70;4.13;;;;;;;19.01;56.42;95164.06;10378383;28;20049;-59
2022/11/18 01:48:27;;;;;;;5.40;4.30;;;;;;;19.00;56.49;95167.91;10413967;28;20049;-58
2022/11/18 01:53:52;;;;;;;5.72;4.15;;;;;;;18.99;56.29;95174.44;10398995;28;20076;-56
2022/11/18 01:59:14;;;;;;;4.65;4.07;;;;;;;18.98;56.50;95164.78;10413706;28;20234;-59
2022/11/18 02:04:33;;;;;;;5.63;4.25;;;;;;;18.97;56.45;95157.81;10413547;28;20053;-59
2022/11/18 02:09:54;;;;;;;4.65;3.92;;;;;;;18.97;56.56;95144.31;10426738;28;20374;-58
2022/11/18 02:15:13;;;;;;;4.55;3.88;;;;;;;18.96;56.57;95137.38;10373718;28;20052;-58
2022/11/18 02:20:37;;;;;;;4.55;4.07;;;;;;;18.95;56.67;95133.91;10370821;28;20465;-59
2022/11/18 02:26:14;;;;;;;4.35;3.83;;;;;;;18.95;56.65;95127.72;10372600;28;20054;-58
2022/11/18 02:31:58;;;;;;;4.30;3.65;;;;;;;18.95;56.70;95125.03;10365225;28;20050;-59
2022/11/18 02:37:30;;;;;;;4.07;3.67;;;;;;;18.94;56.69;95126.16;10378754;28;20066;-59
2022/11/18 02:42:54;;;;;;;3.97;3.63;;;;;;;18.94;56.70;95136.97;10371992;28;20103;-57
2022/11/18 02:48:15;;;;;;;4.20;3.60;;;;;;;18.93;56.83;95132.69;10420195;28;20116;-59
2022/11/18 02:53:37;;;;;;;4.53;3.72;;;;;;;18.91;56.89;95132.28;10420312;28;20057;-58
2022/11/18 02:58:57;;;;;;;4.18;3.67;;;;;;;18.92;56.91;95123.06;10405275;28;20076;-59
2022/11/18 03:04:17;;;;;;;3.88;3.47;;;;;;;18.90;56.88;95125.34;10419566;28;20057;-58
2022/11/18 03:09:39;;;;;;;3.70;3.40;;;;;;;18.89;56.91;95116.44;10390832;28;20054;-59
2022/11/18 03:15:13;;;;;;;4.00;3.50;;;;;;;18.90;56.87;95119.94;10363062;28;20056;-59
2022/11/18 03:20:38;;;;;;;3.90;3.50;;;;;;;18.88;56.86;95111.44;10378284;28;20058;-59
2022/11/18 03:26:11;;;;;;;3.35;3.05;;;;;;;18.87;57.06;95121.41;10376106;28;20088;-59
2022/11/18 03:31:39;;;;;;;3.72;3.42;;;;;;;18.88;56.98;95133.00;10377593;28;20050;-59
2022/11/18 03:37:01;;;;;;;3.80;3.50;;;;;;;18.87;57.18;95126.03;10390521;28;20489;-59
2022/11/18 03:42:30;;;;;;;4.20;3.40;;;;;;;18.85;57.10;95131.78;10365948;28;20053;-58
2022/11/18 03:47:54;;;;;;;4.05;3.40;;;;;;;18.85;57.09;95128.31;10403398;28;20053;-57
2022/11/18 03:53:15;;;;;;;3.67;3.38;;;;;;;18.84;57.25;95121.38;10429909;28;20052;-59
2022/11/18 03:58:46;;;;;;;3.92;3.40;;;;;;;18.84;57.02;95107.91;10416776;28;20061;-58
2022/11/18 04:04:06;;;;;;;3.40;3.10;;;;;;;18.83;57.29;95090.13;10415483;28;20075;-58
2022/11/18 04:09:29;;;;;;;3.58;3.00;;;;;;;18.83;57.14;95092.84;10321353;28;20050;-58
2022/11/18 04:14:54;;;;;;;3.45;3.10;;;;;;;18.81;57.27;95097.81;10335418;28;20051;-58
2022/11/18 04:20:16;;;;;;;3.47;3.17;;;;;;;18.80;57.13;95093.53;10329625;28;20066;-59
2022/11/18 04:25:36;;;;;;;3.38;3.08;;;;;;;18.79;57.26;95114.31;10335053;28;20058;-59
2022/11/18 04:30:55;;;;;;;3.55;2.90;;;;;;;18.78;57.32;95112.78;10334672;28;20075;-59
2022/11/18 04:36:15;;;;;;;3.30;3.00;;;;;;;18.77;57.12;95111.97;10363642;28;20046;-58
2022/11/18 04:47:12;;;;;;;3.10;2.80;;;;;;;18.76;57.28;95142.81;10423007;28;20045;-58
2022/11/18 04:52:31;;;;;;;3.30;3.00;;;;;;;18.76;57.27;95144.72;10414685;28;20053;-59
2022/11/18 04:57:51;;;;;;;3.22;2.92;;;;;;;18.75;57.20;95130.44;10414317;28;20072;-58
2022/11/18 05:03:10;;;;;;;3.42;3.08;;;;;;;18.74;57.21;95134.28;10392628;28;20080;-58
2022/11/18 05:08:30;;;;;;;3.03;2.83;;;;;;;18.74;57.28;95128.91;10373670;28;20054;-59
2022/11/18 05:13:50;;;;;;;3.00;2.70;;;;;;;18.74;57.30;95128.13;10373951;28;20057;-58
2022/11/18 05:19:10;;;;;;;3.22;2.67;;;;;;;18.72;57.16;95125.78;10373893;28;20088;-58
2022/11/18 05:24:29;;;;;;;3.38;3.00;;;;;;;18.74;57.19;95130.81;10373572;28;20046;-58
2022/11/18 05:29:48;;;;;;;2.83;2.63;;;;;;;18.72;57.22;95130.41;10372899;28;20069;-58
2022/11/18 05:35:08;;;;;;;3.10;2.80;;;;;;;18.70;57.35;95125.38;10386163;28;20100;-59
2022/11/18 05:40:28;;;;;;;2.85;2.60;;;;;;;18.71;57.44;95116.13;10373219;28;20128;-59
2022/11/18 05:45:49;;;;;;;3.08;2.78;;;;;;;18.71;57.57;95124.22;10370645;28;20049;-59
2022/11/18 05:51:09;;;;;;;3.85;3.00;;;;;;;18.72;57.63;95125.00;10366562;28;20061;-59
2022/11/18 05:56:32;;;;;;;3.10;2.80;;;;;;;18.73;57.67;95142.75;10372518;28;20072;-57
2022/11/18 06:01:57;;;;;;;2.80;2.60;;;;;;;18.73;57.54;95135.41;10319253;28;20058;-58
2022/11/18 06:07:43;;;;;;;3.00;2.70;;;;;;;18.73;57.77;95135.41;10339865;28;20509;-58
2022/11/18 06:13:07;;;;;;;2.92;2.70;;;;;;;18.75;57.69;95152.03;10325866;28;20089;-59
2022/11/18 06:18:28;;;;;;;2.80;2.60;;;;;;;18.76;57.65;95145.50;10339542;28;20054;-59
2022/11/18 06:23:48;;;;;;;2.70;2.50;;;;;;;18.77;57.70;95154.38;10339941;28;20104;-59
2022/11/18 06:29:10;;;;;;;2.70;2.50;;;;;;;18.80;57.59;95152.88;10339054;28;20573;-59
2022/11/18 06:34:29;;;;;;;2.67;2.47;;;;;;;18.81;57.44;95162.56;10326234;28;20057;-59
2022/11/18 06:39:49;;;;;;;2.97;2.78;;;;;;;18.83;57.53;95171.06;10379312;28;20054;-57
2022/11/18 06:45:09;;;;;;;2.83;2.63;;;;;;;18.86;57.52;95173.06;10406020;28;20060;-59
2022/11/18 06:50:29;;;;;;;2.60;2.40;;;;;;;18.87;57.42;95169.22;10420234;28;20053;-58
2022/11/18 06:55:48;;;;;;;2.67;2.38;;;;;;;18.89;57.66;95169.63;10396967;28;20057;-58
2022/11/18 07:01:15;;;;;;;3.05;2.53;;;;;;;18.92;57.52;95168.94;10378482;28;20053;-58
2022/11/18 07:06:35;;;;;;;3.63;2.25;;;;;;;18.93;57.42;95165.88;10391859;28;20053;-59
2022/11/18 07:11:55;;;;;;;2.88;2.60;;;;;;;18.96;57.70;95161.66;10377114;28;20501;-58
2022/11/18 07:17:15;;;;;;;2.80;2.50;;;;;;;18.99;57.55;95169.03;10391679;28;20054;-59
2022/11/18 07:22:34;;;;;;;2.45;2.25;;;;;;;19.00;57.64;95181.41;10378170;28;20046;-59
2022/11/18 07:27:53;;;;;;;2.60;2.40;;;;;;;19.02;57.59;95192.63;10377136;28;20065;-58
2022/11/18 07:33:13;;;;;;;4.05;2.50;;;;;;;19.05;57.65;95201.91;10377773;28;20046;-59
2022/11/18 07:38:32;;;;;;;2.50;2.30;;;;;;;19.06;57.67;95198.84;10376856;28;20062;-58
2022/11/18 07:43:53;;;;;;;2.67;2.47;;;;;;;19.09;57.47;95202.75;10393181;28;20052;-58
2022/11/18 07:49:13;;;;;;;3.88;2.25;;;;;;;19.11;57.56;95195.88;10431281;28;20037;-58
2022/11/18 07:54:33;;;;;;;2.45;2.25;;;;;;;19.15;57.79;95191.31;10335326;28;20568;-58
2022/11/18 07:59:52;;;;;;;3.25;2.10;;;;;;;19.15;57.57;95195.91;10335677;28;20580;-59
2022/11/18 08:05:11;;;;;;;2.60;2.40;;;;;;;19.19;57.60;95190.56;10348738;28;20054;-60
2022/11/18 08:10:31;;;;;;;2.30;2.10;;;;;;;19.20;57.65;95190.22;10335006;28;20062;-59
2022/11/18 08:15:51;;;;;;;2.42;2.22;;;;;;;19.22;57.65;95187.16;10335315;28;20065;-58
2022/11/18 08:21:11;;;;;;;2.20;2.00;;;;;;;19.26;57.62;95198.78;10335317;28;20077;-58
2022/11/18 08:26:31;;;;;;;2.20;2.00;;;;;;;19.27;57.65;95205.75;10334658;28;20058;-57
2022/11/18 08:31:50;;;;;;;1.90;1.80;;;;;;;19.29;57.40;95204.25;10347768;28;20429;-58
2022/11/18 08:37:09;;;;;;;2.65;2.25;;;;;;;19.31;57.44;95198.50;10371261;28;20053;-58
2022/11/18 08:42:29;;;;;;;2.30;2.10;;;;;;;19.33;57.23;95199.69;10379332;28;20057;-58
2022/11/18 08:47:49;;;;;;;3.50;1.85;;;;;;;19.35;57.08;95199.34;10396358;28;20046;-59
2022/11/18 08:53:09;;;;;;;3.33;2.10;;;;;;;19.37;56.86;95207.84;10374689;28;20053;-58
2022/11/18 08:58:29;;;;;;;2.10;2.00;;;;;;;19.39;56.77;95194.78;10374916;28;20386;-59
2022/11/18 09:03:49;;;;;;;7.35;3.88;;;;;;;19.41;56.76;95205.22;10373523;28;20053;-58
2022/11/18 09:09:08;;;;;;;4.05;2.60;;;;;;;19.44;56.91;95213.34;10387136;28;20034;-59
2022/11/18 09:14:28;;;;;;;2.92;2.67;;;;;;;19.47;56.85;95211.88;10374665;28;20049;-60
2022/11/18 09:19:47;;;;;;;2.90;2.67;;;;;;;19.51;56.82;95207.31;10373813;28;20057;-60
2022/11/18 09:25:07;;;;;;;2.95;2.50;;;;;;;19.51;57.02;95221.56;10373167;28;20050;-60
2022/11/18 09:30:27;;;;;;;3.72;2.60;;;;;;;19.52;56.84;95225.84;10372509;28;20054;-58
2022/11/18 09:35:46;;;;;;;4.95;2.38;;;;;;;19.54;56.56;95226.28;10372448;28;20050;-57
2022/11/18 09:41:08;;;;;;;2.50;2.30;;;;;;;19.58;56.86;95239.03;10372733;28;20061;-59
2022/11/18 09:46:37;;;;;;;2.45;2.05;;;;;;;19.60;56.72;95224.03;10373047;28;20096;-59
2022/11/18 09:52:00;;;;;;;3.40;2.40;;;;;;;19.61;56.71;95224.81;10372734;28;20436;-58
2022/11/18 09:57:48;;;;;;;2.60;2.30;;;;;;;19.63;56.68;95236.81;10357504;28;20065;-60
2022/11/18 10:03:17;;;;;;;4.35;3.95;;;;;;;19.63;51.80;95236.03;10385774;28;20045;-59
2022/11/18 10:08:47;;;;;;;4.60;2.70;;;;;;;19.64;54.35;95237.59;10372150;28;20050;-58
2022/11/18 10:14:17;;;;;;;5.00;2.50;;;;;;;19.66;54.63;95232.59;10357307;28;20054;-59
2022/11/18 10:19:45;;;;;;;3.85;2.58;;;;;;;19.68;54.62;95233.81;10385539;28;20401;-58
2022/11/18 10:25:11;;;;;;;3.07;2.77;;;;;;;19.70;53.60;95231.53;10357148;28;20064;-56
2022/11/18 10:30:31;;;;;;;8.60;4.85;;;;;;;19.67;49.09;95217.97;10370346;28;20053;-59
2022/11/18 10:36:07;;;;;;;7.10;5.88;;;;;;;19.44;43.54;95220.69;10369068;28;20050;-58
2022/11/18 10:41:27;;;;;;;4.63;4.00;;;;;;;19.40;46.42;95217.91;10371110;28;20387;-58
2022/11/18 10:46:46;;;;;;;4.05;3.40;;;;;;;19.52;49.55;95215.03;10394657;28;20053;-59
2022/11/18 10:52:11;;;;;;;5.40;3.95;;;;;;;19.61;50.15;95214.00;10419725;28;20050;-59
2022/11/18 10:57:34;;;;;;;6.85;3.60;;;;;;;19.65;50.14;95234.53;10419053;28;20504;-58
2022/11/18 11:02:53;;;;;;;4.93;3.70;;;;;;;19.69;50.21;95234.59;10419248;28;20512;-59
2022/11/18 11:08:21;;;;;;;4.47;3.45;;;;;;;19.71;50.30;95232.31;10432974;28;20049;-59
2022/11/18 11:13:42;;;;;;;5.20;3.50;;;;;;;19.75;50.55;95230.47;10419121;28;20068;-59
2022/11/18 11:19:02;;;;;;;4.25;3.35;;;;;;;19.76;50.75;95237.44;10419333;28;20060;-59
2022/11/18 11:24:24;;;;;;;4.68;3.33;;;;;;;19.79;50.98;95235.94;10419095;28;20107;-59
2022/11/18 11:30:18;;;;;;;4.35;3.53;;;;;;;19.81;50.95;95236.34;10417851;28;20496;-59
2022/11/18 11:35:37;;;;;;;8.63;4.40;;;;;;;19.81;49.23;95237.09;10415315;28;20104;-59
2022/11/18 11:41:25;;;;;;;3.78;3.00;;;;;;;19.82;50.50;95243.31;10376932;28;20065;-59
2022/11/18 11:53:16;;;;;;;4.03;3.15;;;;;;;19.87;50.81;95251.09;10349815;28;20317;-59
2022/11/18 11:58:39;;;;;;;4.38;3.22;;;;;;;19.87;51.24;95257.28;10320502;28;20058;-59
2022/11/18 12:04:28;;;;;;;3.28;2.97;;;;;;;19.90;51.63;95261.19;10335559;28;20047;-59
2022/11/18 12:10:08;;;;;;;4.20;2.95;;;;;;;19.92;51.62;95275.88;10348778;28;20050;-59
2022/11/18 12:16:09;;;;;;;3.45;2.90;;;;;;;19.93;51.62;95277.47;10321075;28;20435;-59
2022/11/18 12:21:44;;;;;;;4.47;3.40;;;;;;;19.93;51.82;95272.06;10335482;28;20057;-59
2022/11/18 12:27:19;;;;;;;4.40;2.78;;;;;;;19.94;52.10;95284.41;10328598;28;20051;-59
2022/11/18 12:32:44;;;;;;;5.38;3.20;;;;;;;19.96;52.24;95278.66;10352386;28;20053;-59
2022/11/18 12:38:03;;;;;;;3.22;2.92;;;;;;;19.98;52.35;95299.91;10375251;28;20057;-59
2022/11/18 12:43:47;;;;;;;3.20;2.67;;;;;;;19.99;52.46;95298.75;10385494;28;20087;-59
2022/11/18 12:49:21;;;;;;;3.40;2.85;;;;;;;20.00;52.61;95292.22;10429345;28;20052;-59
2022/11/18 12:54:47;;;;;;;4.60;2.95;;;;;;;20.00;52.72;95297.63;10427547;28;20416;-59
2022/11/18 13:00:16;;;;;;;3.17;2.80;;;;;;;20.02;52.81;95317.75;10415451;28;20069;-59
2022/11/18 13:05:36;;;;;;;4.07;2.72;;;;;;;20.04;52.96;95328.19;10428315;28;20052;-59
2022/11/18 13:28:17;;;;;;;2.85;2.55;;;;;;;20.07;53.09;95324.75;10414807;28;20041;-59
2022/11/18 13:33:37;;;;;;;3.30;2.60;;;;;;;20.08;52.88;95329.03;10359015;28;20056;-59
2022/11/18 13:39:05;;;;;;;2.67;2.47;;;;;;;20.09;53.06;95344.09;10386377;28;20041;-59
2022/11/18 13:44:26;;;;;;;3.30;3.00;;;;;;;20.10;52.91;95342.97;10393864;28;20447;-59
2022/11/18 13:49:50;;;;;;;2.95;2.67;;;;;;;20.11;52.92;95341.81;10414138;28;20409;-59
2022/11/18 13:55:12;;;;;;;2.70;2.50;;;;;;;20.11;53.02;95337.19;10413801;28;20069;-59
2022/11/18 14:00:34;;;;;;;3.42;2.58;;;;;;;20.15;52.96;95348.06;10413300;28;20057;-59
2022/11/18 14:05:53;;;;;;;2.80;2.53;;;;;;;20.15;52.98;95353.47;10426885;28;20050;-59
2022/11/18 14:11:33;;;;;;;2.50;2.30;;;;;;;20.16;52.88;95355.03;10413682;28;20065;-59
2022/11/18 14:16:52;;;;;;;2.97;2.60;;;;;;;20.16;53.00;95368.53;10426917;28;20052;-58
2022/11/18 14:22:18;;;;;;;2.83;2.53;;;;;;;20.18;53.13;95362.78;10413348;28;20537;-58
2022/11/18 14:27:40;;;;;;;2.45;2.25;;;;;;;20.19;53.07;95362.44;10383789;28;20044;-59
2022/11/18 14:33:17;;;;;;;2.85;2.65;;;;;;;20.22;52.95;95367.09;10380056;28;20054;-59
2022/11/18 14:38:49;;;;;;;2.47;2.17;;;;;;;20.22;52.98;95369.78;10392697;28;20524;-59
2022/11/18 14:44:09;;;;;;;2.50;2.30;;;;;;;20.23;52.97;95371.38;10397765;28;20111;-59
2022/11/18 14:49:31;;;;;;;2.50;2.30;;;;;;;20.23;53.06;95373.28;10419878;28;20049;-59
2022/11/18 14:54:51;;;;;;;2.53;2.33;;;;;;;20.24;53.07;95394.56;10431443;28;20420;-59
2022/11/18 15:00:13;;;;;;;2.53;2.10;;;;;;;20.25;53.00;95393.41;10420089;28;20061;-59
2022/11/18 15:05:32;;;;;;;2.83;2.08;;;;;;;20.27;53.02;95401.19;10419651;28;20054;-59
2022/11/18 15:10:52;;;;;;;2.30;2.10;;;;;;;20.27;52.94;95415.47;10419633;28;20457;-59
2022/11/18 15:16:18;;;;;;;2.42;2.20;;;;;;;20.29;52.81;95410.47;10432626;28;20037;-59
2022/11/18 15:21:37;;;;;;;2.25;2.13;;;;;;;20.30;53.03;95417.44;10398987;28;20049;-59
2022/11/18 15:26:56;;;;;;;2.25;2.05;;;;;;;20.32;52.88;95425.19;10378207;28;20108;-59
2022/11/18 15:32:16;;;;;;;3.08;2.20;;;;;;;20.32;52.86;95434.09;10391109;28;20050;-59
2022/11/18 15:37:35;;;;;;;2.58;2.08;;;;;;;20.33;52.91;95432.19;10377370;28;20108;-59
2022/11/18 15:42:54;;;;;;;2.30;2.10;;;;;;;20.34;52.74;95447.25;10385769;28;20050;-59
2022/11/18 15:48:14;;;;;;;2.30;2.10;;;;;;;20.35;52.67;95463.13;10418427;28;20057;-58
2022/11/18 15:53:33;;;;;;;2.05;1.83;;;;;;;20.35;52.78;95484.75;10417529;28;20673;-59
2022/11/18 15:58:59;;;;;;;2.60;2.20;;;;;;;20.38;52.84;95480.53;10417358;28;20061;-59
2022/11/18 16:04:18;;;;;;;2.17;1.90;;;;;;;20.39;52.71;95486.75;10417742;28;20085;-59
2022/11/18 16:20:59;;;;;;;2.27;2.07;;;;;;;20.42;52.48;95518.47;10327944;28;20113;-59
2022/11/18 16:26:19;;;;;;;2.28;2.08;;;;;;;20.44;52.48;95524.31;10334971;28;20493;-59
2022/11/18 16:31:38;;;;;;;1.90;1.80;;;;;;;20.44;52.55;95524.31;10335057;28;20050;-59
2022/11/18 16:37:00;;;;;;;2.00;1.80;;;;;;;20.44;52.58;95529.72;10356527;28;20501;-59
2022/11/18 16:42:19;;;;;;;2.03;1.88;;;;;;;20.47;52.42;95539.81;10378427;28;20053;-59
2022/11/18 16:47:38;;;;;;;2.03;1.83;;;;;;;20.48;52.35;95554.91;10428440;28;20477;-59
2022/11/18 16:52:58;;;;;;;1.98;1.88;;;;;;;20.48;52.38;95554.91;10415059;28;20519;-59
2022/11/18 16:58:17;;;;;;;1.90;1.80;;;;;;;20.50;52.32;95558.03;10414896;28;20061;-59
2022/11/18 17:03:36;;;;;;;2.13;1.92;;;;;;;20.50;52.27;95566.16;10428432;28;20045;-59
2022/11/18 17:09:01;;;;;;;2.20;2.00;;;;;;;20.51;52.30;95570.44;10415173;28;20064;-59
2022/11/18 17:14:21;;;;;;;2.10;1.90;;;;;;;20.54;52.00;95572.41;10393667;28;20046;-59
2022/11/18 17:19:41;;;;;;;1.95;1.80;;;;;;;20.53;51.74;95577.03;10387436;28;20125;-59
2022/11/18 17:25:00;;;;;;;3.47;1.90;;;;;;;20.54;51.64;95589.44;10373365;28;20049;-60
2022/11/18 17:30:20;;;;;;;2.22;2.03;;;;;;;20.55;51.69;95598.31;10373486;28;20425;-59
2022/11/18 17:35:39;;;;;;;2.00;1.90;;;;;;;20.55;51.55;95607.22;10372755;28;20406;-59
2022/11/18 17:40:59;;;;;;;2.83;2.33;;;;;;;20.57;51.23;95612.28;10373309;28;20054;-59
2022/11/18 17:46:18;;;;;;;5.78;3.38;;;;;;;20.57;51.06;95617.69;10409269;28;20059;-59
2022/11/18 17:51:38;;;;;;;13.63;4.85;;;;;;;20.58;51.04;95619.25;10413967;28;20049;-59
2022/11/18 17:56:58;;;;;;;8.73;3.28;;;;;;;20.59;51.13;95631.66;10414810;28;20673;-58
2022/11/18 18:02:20;;;;;;;8.95;5.20;;;;;;;20.62;51.70;95651.81;10435294;28;20041;-59
2022/11/18 18:07:39;;;;;;;7.70;4.13;;;;;;;20.63;52.07;95659.56;10421815;28;20092;-58
2022/11/18 18:18:40;;;;;;;4.18;3.60;;;;;;;20.67;52.63;95689.41;10380509;28;20049;-59
2022/11/18 18:24:01;;;;;;;4.00;3.10;;;;;;;20.67;52.54;95687.47;10380370;28;20046;-59
2022/11/18 18:29:21;;;;;;;5.20;2.90;;;;;;;20.66;52.54;95699.47;10380190;28;20056;-58
2022/11/18 18:34:40;;;;;;;5.22;3.20;;;;;;;20.67;52.41;95695.59;10379909;28;20046;-59
2022/11/18 18:40:00;;;;;;;3.85;2.90;;;;;;;20.67;52.39;95706.41;10379977;28;20053;-58
2022/11/18 18:51:03;;;;;;;4.30;2.80;;;;;;;20.68;52.19;95732.34;10419887;28;20057;-58
2022/11/18 18:56:24;;;;;;;4.03;2.50;;;;;;;20.67;52.09;95736.19;10427183;28;20069;-59
2022/11/18 19:01:43;;;;;;;3.97;2.53;;;;;;;20.69;52.08;95744.72;10419820;28;20053;-58
2022/11/18 19:07:03;;;;;;;3.83;2.67;;;;;;;20.70;51.92;95745.53;10396828;28;20057;-58
2022/11/18 19:18:03;;;;;;;3.63;2.60;;;;;;;20.71;51.75;95774.94;10378928;28;20058;-58
2022/11/18 19:23:24;;;;;;;3.72;2.60;;;;;;;20.73;51.65;95761.03;10377497;28;20493;-58
2022/11/18 19:28:43;;;;;;;3.17;2.70;;;;;;;20.71;51.75;95769.50;10391022;28;20049;-59
2022/11/18 19:34:03;;;;;;;2.80;2.50;;;;;;;20.73;51.69;95772.66;10390999;28;20409;-58
2022/11/18 19:39:22;;;;;;;3.17;2.88;;;;;;;20.71;51.62;95791.16;10377907;28;20064;-58
2022/11/18 19:44:42;;;;;;;3.33;2.60;;;;;;;20.73;51.50;95804.34;10407966;28;20053;-58
2022/11/18 19:50:04;;;;;;;3.05;2.50;;;;;;;20.73;51.53;95797.00;10431472;28;20047;-59
2022/11/18 19:55:23;;;;;;;3.20;2.60;;;;;;;20.74;51.43;95811.34;10418327;28;20053;-59
2022/11/18 20:00:42;;;;;;;3.10;2.45;;;;;;;20.74;51.37;95822.94;10415927;28;20069;-59
2022/11/18 20:06:03;;;;;;;5.45;3.05;;;;;;;20.76;51.41;95825.31;10376760;28;20054;-58
2022/11/18 20:11:23;;;;;;;3.22;2.60;;;;;;;20.74;51.36;95822.94;10376464;28;20066;-58
2022/11/18 20:16:43;;;;;;;4.32;3.25;;;;;;;20.73;51.38;95837.59;10376796;28;20065;-58
2022/11/18 20:22:02;;;;;;;6.82;3.50;;;;;;;20.74;51.29;95827.59;10388119;28;20041;-59
2022/11/18 20:27:21;;;;;;;5.25;3.22;;;;;;;20.73;51.25;95836.81;10375643;28;20058;-58
2022/11/18 20:32:41;;;;;;;5.85;3.30;;;;;;;20.72;51.23;95825.22;10373819;28;20100;-59
2022/11/18 20:38:01;;;;;;;7.05;3.58;;;;;;;20.73;51.28;95836.81;10374519;28;20056;-59
2022/11/18 20:43:24;;;;;;;6.53;3.67;;;;;;;20.73;51.16;95837.59;10394933;28;20049;-59
2022/11/18 20:48:43;;;;;;;6.07;3.50;;;;;;;20.73;50.94;95837.59;10428980;28;20053;-59
2022/11/18 20:54:07;;;;;;;5.72;3.58;;;;;;;20.74;51.08;95838.41;10415717;28;20057;-58
2022/11/18 20:59:26;;;;;;;6.43;3.60;;;;;;;20.75;50.95;95856.19;10392389;28;20080;-58
2022/11/18 21:04:46;;;;;;;6.20;3.65;;;;;;;20.74;51.03;95855.41;10374293;28;20056;-59
2022/11/18 21:10:06;;;;;;;6.20;3.47;;;;;;;20.75;51.04;95864.31;10373579;28;20501;-59
2022/11/18 21:15:26;;;;;;;6.57;3.45;;;;;;;20.76;51.14;95856.97;10374084;28;20053;-58
2022/11/18 21:26:34;;;;;;;5.75;3.22;;;;;;;20.76;50.83;95874.03;10386749;28;20493;-59
2022/11/18 21:31:56;;;;;;;7.00;3.60;;;;;;;20.76;50.97;95867.81;10373284;28;20409;-59
2022/11/18 21:37:16;;;;;;;6.25;3.67;;;;;;;20.76;51.07;95887.56;10373330;28;20077;-59
2022/11/18 21:42:36;;;;;;;5.72;3.53;;;;;;;20.76;51.09;95901.09;10378276;28;20057;-59
2022/11/18 21:47:55;;;;;;;6.13;3.60;;;;;;;20.75;51.15;95899.50;10427261;28;20041;-59
2022/11/18 21:53:15;;;;;;;4.85;3.22;;;;;;;20.74;51.15;95903.38;10411743;28;20050;-59
2022/11/18 21:58:35;;;;;;;5.10;3.25;;;;;;;20.72;51.35;95895.59;10372465;28;20062;-59
2022/11/18 22:04:01;;;;;;;5.18;3.58;;;;;;;20.73;51.32;95913.38;10373046;28;20076;-59
2022/11/18 22:09:20;;;;;;;5.00;3.03;;;;;;;20.71;51.28;95925.72;10385854;28;20042;-59
2022/11/18 22:14:40;;;;;;;3.88;2.88;;;;;;;20.70;51.40;95934.97;10371048;28;20100;-59
2022/11/18 22:20:00;;;;;;;3.95;3.00;;;;;;;20.69;51.27;95919.88;10372631;28;20057;-59
2022/11/18 22:25:19;;;;;;;5.82;2.97;;;;;;;20.67;51.13;95931.03;10372527;28;20050;-58
2022/11/18 22:30:39;;;;;;;3.13;2.60;;;;;;;20.68;51.22;95959.69;10372221;28;20100;-58
2022/11/18 22:36:04;;;;;;;5.05;2.78;;;;;;;20.66;51.27;95975.50;10371392;28;20548;-59
2022/11/18 22:47:03;;;;;;;5.22;3.13;;;;;;;20.64;51.03;95988.59;10412330;28;20061;-58
2022/11/18 22:52:22;;;;;;;3.55;2.70;;;;;;;20.62;50.90;95987.34;10394502;28;20121;-58
2022/11/18 22:57:43;;;;;;;5.28;2.50;;;;;;;20.61;51.16;95997.41;10378610;28;20062;-58
2022/11/18 23:03:03;;;;;;;3.47;2.75;;;;;;;20.60;51.03;96003.16;10391956;28;20045;-58
2022/11/18 23:08:23;;;;;;;3.00;2.33;;;;;;;20.57;50.89;95996.50;10378724;28;20057;-58
2022/11/18 23:13:54;;;;;;;3.70;2.60;;;;;;;20.56;50.96;96000.31;10378651;28;20073;-59
2022/11/18 23:19:15;;;;;;;3.58;2.60;;;;;;;20.55;50.92;95994.13;10378403;28;20057;-59
2022/11/18 23:24:34;;;;;;;3.50;2.47;;;;;;;20.53;50.94;96001.03;10377630;28;20054;-59
2022/11/18 23:29:54;;;;;;;3.70;2.20;;;;;;;20.52;50.93;95994.03;10377908;28;20460;-58
2022/11/18 23:35:13;;;;;;;3.40;2.58;;;;;;;20.51;50.82;95998.69;10385103;28;20046;-59
2022/11/18 23:40:33;;;;;;;3.05;2.30;;;;;;;20.50;50.84;96004.44;10390731;28;20096;-59
2022/11/18 23:45:52;;;;;;;3.10;2.30;;;;;;;20.48;50.93;96020.22;10406587;28;20042;-59
2022/11/18 23:51:17;;;;;;;4.05;2.50;;;;;;;20.46;50.92;96020.56;10377503;28;20054;-59
2022/11/18 23:56:37;;;;;;;2.88;1.98;;;;;;;20.45;50.81;96020.94;10376459;28;20061;-59
